createdAt,value
2022-08-28T00:01:37.217Z,20.94
2022-08-28T00:04:10.563Z,20.83
2022-08-28T00:06:43.910Z,20.82
2022-08-28T00:09:17.771Z,20.75
2022-08-28T00:11:51.120Z,20.70
2022-08-28T00:14:25.536Z,20.65
2022-08-28T00:16:58.973Z,20.60
2022-08-28T00:19:36.636Z,20.56
2022-08-28T00:22:13.027Z,20.52
2022-08-28T00:24:49.885Z,20.50
2022-08-28T00:27:58.892Z,20.46
2022-08-28T00:30:35.254Z,20.43
2022-08-28T00:33:15.105Z,20.40
2022-08-28T00:35:49.423Z,20.32
2022-08-28T00:38:27.842Z,20.30
2022-08-28T00:41:04.917Z,20.24
2022-08-28T00:43:49.811Z,20.27
2022-08-28T00:46:25.562Z,20.23
2022-08-28T00:48:59.085Z,20.20
2022-08-28T00:51:51.278Z,20.16
2022-08-28T00:54:25.795Z,20.05
2022-08-28T00:56:59.521Z,20.06
2022-08-28T00:59:33.939Z,20.00
2022-08-28T01:02:09.287Z,19.99
2022-08-28T01:04:43.045Z,19.95
2022-08-28T01:07:17.071Z,19.92
2022-08-28T01:09:54.638Z,19.83
2022-08-28T01:12:32.070Z,19.79
2022-08-28T01:15:14.082Z,19.82
2022-08-28T01:17:53.241Z,19.74
2022-08-28T01:20:33.585Z,19.76
2022-08-28T01:23:40.161Z,19.72
2022-08-28T01:26:14.327Z,19.69
2022-08-28T01:28:48.208Z,19.66
2022-08-28T01:31:22.739Z,19.59
2022-08-28T01:33:56.287Z,19.61
2022-08-28T01:36:29.784Z,19.61
2022-08-28T01:39:13.929Z,19.57
2022-08-28T01:41:48.546Z,19.54
2022-08-28T01:44:25.258Z,19.46
2022-08-28T01:47:00.147Z,19.50
2022-08-28T01:49:33.639Z,19.48
2022-08-28T01:52:07.433Z,19.45
2022-08-28T01:54:42.864Z,19.42
2022-08-28T01:57:16.992Z,19.39
2022-08-28T01:59:55.252Z,19.29
2022-08-28T02:02:29.452Z,19.26
2022-08-28T02:05:02.712Z,19.18
2022-08-28T02:07:35.857Z,19.21
2022-08-28T02:10:12.573Z,19.15
2022-08-28T02:12:45.779Z,19.13
2022-08-28T02:15:19.074Z,19.09
2022-08-28T02:17:57.963Z,19.09
2022-08-28T02:20:34.263Z,19.06
2022-08-28T02:23:08.403Z,19.02
2022-08-28T02:25:42.179Z,18.97
2022-08-28T02:28:15.645Z,18.94
2022-08-28T02:30:49.475Z,18.91
2022-08-28T02:33:25.741Z,18.86
2022-08-28T02:35:59.075Z,18.75
2022-08-28T02:38:32.131Z,18.78
2022-08-28T02:41:05.742Z,18.76
2022-08-28T02:43:38.732Z,18.73
2022-08-28T02:46:12.356Z,18.70
2022-08-28T02:48:46.584Z,18.68
2022-08-28T02:51:20.773Z,18.66
2022-08-28T02:53:54.352Z,18.61
2022-08-28T02:56:28.531Z,18.62
2022-08-28T02:59:01.795Z,18.55
2022-08-28T03:01:35.146Z,18.58
2022-08-28T03:04:08.581Z,18.51
2022-08-28T03:06:42.747Z,18.51
2022-08-28T03:09:16.261Z,18.46
2022-08-28T03:11:49.771Z,18.43
2022-08-28T03:14:28.997Z,18.36
2022-08-28T03:17:02.622Z,18.35
2022-08-28T03:19:35.969Z,18.34
2022-08-28T03:22:09.443Z,18.39
2022-08-28T03:24:43.332Z,18.37
2022-08-28T03:27:16.570Z,18.35
2022-08-28T03:29:50.412Z,18.31
2022-08-28T03:32:24.536Z,18.29
2022-08-28T03:35:03.821Z,18.22
2022-08-28T03:37:37.120Z,18.27
2022-08-28T03:40:11.486Z,18.28
2022-08-28T03:42:52.924Z,18.26
2022-08-28T03:45:28.315Z,18.20
2022-08-28T03:48:01.905Z,18.13
2022-08-28T03:50:36.185Z,18.15
2022-08-28T03:53:09.488Z,18.15
2022-08-28T03:55:47.433Z,18.20
2022-08-28T03:58:21.471Z,18.21
2022-08-28T04:00:54.765Z,18.19
2022-08-28T04:03:27.719Z,18.21
2022-08-28T04:06:01.131Z,18.29
2022-08-28T04:08:34.562Z,18.30
2022-08-28T04:11:08.041Z,18.34
2022-08-28T04:13:42.238Z,18.38
2022-08-28T04:16:20.309Z,18.43
2022-08-28T04:18:53.771Z,18.34
2022-08-28T04:21:28.601Z,18.44
2022-08-28T04:24:03.051Z,18.44
2022-08-28T04:26:38.771Z,18.41
2022-08-28T04:29:12.081Z,18.46
2022-08-28T04:31:45.232Z,18.55
2022-08-28T04:34:18.639Z,18.61
2022-08-28T04:36:54.391Z,18.69
2022-08-28T04:39:27.505Z,18.73
2022-08-28T04:42:00.582Z,18.80
2022-08-28T04:44:33.778Z,18.85
2022-08-28T04:47:06.813Z,18.89
2022-08-28T04:49:41.152Z,18.96
2022-08-28T04:52:14.271Z,19.04
2022-08-28T04:54:47.763Z,19.12
2022-08-28T04:57:20.986Z,19.21
2022-08-28T04:59:53.967Z,19.28
2022-08-28T05:02:27.057Z,19.30
2022-08-28T05:05:00.217Z,19.33
2022-08-28T05:07:33.365Z,19.46
2022-08-28T05:10:06.187Z,19.51
2022-08-28T05:12:39.650Z,19.62
2022-08-28T05:15:13.172Z,19.68
2022-08-28T05:17:47.005Z,19.70
2022-08-28T05:20:19.957Z,19.77
2022-08-28T05:22:52.613Z,19.81
2022-08-28T05:25:25.393Z,19.88
2022-08-28T05:28:09.908Z,19.87
2022-08-28T05:30:56.205Z,19.87
2022-08-28T05:33:30.352Z,20.04
2022-08-28T05:36:08.806Z,20.09
2022-08-28T05:38:43.383Z,20.14
2022-08-28T05:41:22.681Z,20.28
2022-08-28T05:43:55.695Z,20.33
2022-08-28T05:46:30.815Z,20.41
2022-08-28T05:49:09.617Z,20.43
2022-08-28T05:51:45.473Z,20.54
2022-08-28T05:54:19.028Z,20.58
2022-08-28T05:56:51.853Z,20.66
2022-08-28T05:59:26.097Z,20.82
2022-08-28T06:02:04.018Z,20.88
2022-08-28T06:04:40.855Z,21.01
2022-08-28T06:07:16.291Z,21.07
2022-08-28T06:09:49.397Z,21.14
2022-08-28T06:12:22.960Z,21.26
2022-08-28T06:14:56.466Z,21.36
2022-08-28T06:17:30.484Z,21.45
2022-08-28T06:20:03.990Z,21.54
2022-08-28T06:22:37.111Z,21.62
2022-08-28T06:25:14.984Z,21.69
2022-08-28T06:27:48.380Z,21.75
2022-08-28T06:30:21.782Z,21.77
2022-08-28T06:32:55.445Z,21.89
2022-08-28T06:35:28.528Z,21.96
2022-08-28T06:38:04.622Z,22.05
2022-08-28T06:40:50.198Z,22.15
2022-08-28T06:43:25.241Z,22.25
2022-08-28T06:46:00.640Z,22.34
2022-08-28T06:48:34.123Z,22.42
2022-08-28T06:51:10.632Z,22.47
2022-08-28T06:53:45.564Z,22.63
2022-08-28T06:56:26.260Z,22.72
2022-08-28T06:59:01.865Z,22.83
2022-08-28T07:01:38.401Z,22.93
2022-08-28T07:04:15.310Z,23.02
2022-08-28T07:06:54.364Z,23.12
2022-08-28T07:09:32.948Z,23.24
2022-08-28T07:12:06.096Z,23.34
2022-08-28T07:14:40.064Z,23.40
2022-08-28T07:17:13.384Z,23.55
2022-08-28T07:19:47.308Z,23.64
2022-08-28T07:22:20.408Z,23.73
2022-08-28T07:24:55.514Z,23.82
2022-08-28T07:27:28.709Z,23.88
2022-08-28T07:30:02.945Z,24.00
2022-08-28T07:32:37.403Z,24.08
2022-08-28T07:35:11.117Z,24.18
2022-08-28T07:37:44.851Z,24.17
2022-08-28T07:40:19.379Z,24.22
2022-08-28T07:43:10.768Z,24.45
2022-08-28T07:45:43.492Z,24.53
2022-08-28T07:48:16.947Z,24.60
2022-08-28T07:50:56.594Z,24.69
2022-08-28T07:53:32.169Z,24.79
2022-08-28T07:56:11.981Z,24.89
2022-08-28T07:58:46.003Z,24.93
2022-08-28T08:01:19.972Z,25.01
2022-08-28T08:03:55.894Z,25.13
2022-08-28T08:06:34.589Z,25.16
2022-08-28T08:09:09.798Z,25.31
2022-08-28T08:11:43.232Z,25.39
2022-08-28T08:14:17.455Z,25.41
2022-08-28T08:16:53.021Z,25.48
2022-08-28T08:19:26.064Z,25.61
2022-08-28T08:22:00.072Z,25.69
2022-08-28T08:24:33.281Z,25.78
2022-08-28T08:27:11.140Z,25.81
2022-08-28T08:29:44.411Z,25.93
2022-08-28T08:32:18.873Z,26.00
2022-08-28T08:34:56.295Z,26.09
2022-08-28T08:37:31.016Z,26.17
2022-08-28T08:40:10.456Z,26.24
2022-08-28T08:42:51.644Z,26.30
2022-08-28T08:45:27.260Z,26.38
2022-08-28T08:48:02.617Z,26.47
2022-08-28T08:50:38.247Z,26.55
2022-08-28T08:53:33.249Z,26.63
2022-08-28T08:56:07.046Z,26.73
2022-08-28T08:58:43.099Z,26.76
2022-08-28T09:01:59.983Z,26.88
2022-08-28T09:04:47.053Z,26.96
2022-08-28T09:07:23.179Z,27.07
2022-08-28T09:09:59.770Z,27.15
2022-08-28T09:12:37.461Z,27.21
2022-08-28T09:15:47.539Z,27.29
2022-08-28T09:18:36.810Z,27.35
2022-08-28T09:21:12.245Z,27.42
2022-08-28T09:23:45.275Z,27.49
2022-08-28T09:26:26.059Z,27.49
2022-08-28T09:29:09.553Z,27.59
2022-08-28T09:31:44.409Z,27.61
2022-08-28T09:34:33.399Z,27.71
2022-08-28T09:37:13.909Z,27.78
2022-08-28T09:39:48.970Z,27.83
2022-08-28T09:42:46.055Z,27.88
2022-08-28T09:45:21.813Z,27.96
2022-08-28T09:47:59.846Z,28.03
2022-08-28T09:50:37.967Z,28.04
2022-08-28T09:53:15.838Z,28.16
2022-08-28T09:55:57.324Z,28.26
2022-08-28T09:58:47.456Z,28.36
2022-08-28T10:01:22.555Z,28.39
2022-08-28T10:04:15.534Z,28.50
2022-08-28T10:06:57.084Z,28.54
2022-08-28T10:09:51.276Z,28.59
2022-08-28T10:12:37.855Z,28.68
2022-08-28T10:15:30.264Z,28.73
2022-08-28T10:18:18.103Z,28.75
2022-08-28T10:21:12.947Z,28.86
2022-08-28T10:23:56.837Z,28.94
2022-08-28T10:26:47.360Z,28.97
2022-08-28T10:29:43.869Z,28.99
2022-08-28T10:32:28.649Z,29.09
2022-08-28T10:35:17.410Z,29.11
2022-08-28T10:38:06.292Z,29.16
2022-08-28T10:40:51.314Z,29.23
2022-08-28T10:43:40.756Z,29.26
2022-08-28T10:46:27.173Z,29.29
2022-08-28T10:49:18.230Z,29.33
2022-08-28T10:52:00.221Z,29.39
2022-08-28T10:54:55.253Z,29.43
2022-08-28T10:57:39.420Z,29.46
2022-08-28T11:00:16.552Z,29.63
2022-08-28T11:02:57.562Z,29.67
2022-08-28T11:05:46.638Z,29.61
2022-08-28T11:08:34.179Z,29.66
2022-08-28T11:11:14.552Z,29.77
2022-08-28T11:13:47.295Z,29.80
2022-08-28T11:16:31.929Z,29.84
2022-08-28T11:19:15.272Z,29.90
2022-08-28T11:22:04.975Z,29.88
2022-08-28T11:25:02.410Z,29.97
2022-08-28T11:27:41.514Z,29.96
2022-08-28T11:30:15.776Z,29.98
2022-08-28T11:32:57.657Z,29.98
2022-08-28T11:35:32.893Z,29.98
2022-08-28T11:38:05.957Z,29.99
2022-08-28T11:40:39.659Z,30.02
2022-08-28T11:43:17.837Z,30.05
2022-08-28T11:45:50.429Z,30.10
2022-08-28T11:48:49.585Z,30.17
2022-08-28T11:51:44.921Z,30.26
2022-08-28T11:54:36.791Z,30.25
2022-08-28T11:57:24.676Z,30.32
2022-08-28T12:00:05.309Z,30.34
2022-08-28T12:02:44.588Z,30.41
2022-08-28T12:05:20.271Z,30.44
2022-08-28T12:07:54.309Z,30.50
2022-08-28T12:10:27.526Z,30.55
2022-08-28T12:13:10.077Z,30.58
2022-08-28T12:15:44.772Z,30.55
2022-08-28T12:18:43.262Z,30.55
2022-08-28T12:21:27.868Z,30.49
2022-08-28T12:24:09.821Z,30.52
2022-08-28T12:26:57.036Z,30.57
2022-08-28T12:29:41.016Z,30.58
2022-08-28T12:32:14.147Z,30.56
2022-08-28T12:35:00.226Z,30.55
2022-08-28T12:37:52.004Z,30.56
2022-08-28T12:40:51.282Z,30.55
2022-08-28T12:43:41.672Z,30.57
2022-08-28T12:46:37.214Z,30.52
2022-08-28T12:49:32.848Z,30.46
2022-08-28T12:52:16.988Z,30.45
2022-08-28T12:54:51.809Z,30.49
2022-08-28T12:57:26.542Z,30.56
2022-08-28T13:00:12.405Z,30.58
2022-08-28T13:02:50.511Z,30.62
2022-08-28T13:05:44.399Z,30.76
2022-08-28T13:08:25.338Z,30.78
2022-08-28T13:10:59.523Z,30.75
2022-08-28T13:13:48.190Z,30.85
2022-08-28T13:16:45.659Z,30.91
2022-08-28T13:19:37.081Z,30.97
2022-08-28T13:22:32.071Z,30.98
2022-08-28T13:25:07.046Z,31.02
2022-08-28T13:27:40.412Z,31.07
2022-08-28T13:30:21.511Z,31.08
2022-08-28T13:33:23.073Z,31.02
2022-08-28T13:35:56.531Z,31.08
2022-08-28T13:38:29.629Z,31.08
2022-08-28T13:41:07.122Z,31.08
2022-08-28T13:43:49.014Z,31.11
2022-08-28T13:46:21.982Z,31.13
2022-08-28T13:48:54.894Z,31.13
2022-08-28T13:51:28.784Z,31.15
2022-08-28T13:54:03.386Z,31.16
2022-08-28T13:56:36.295Z,31.17
2022-08-28T13:59:09.224Z,31.14
2022-08-28T14:02:01.777Z,31.19
2022-08-28T14:04:37.508Z,31.19
2022-08-28T14:07:11.203Z,31.15
2022-08-28T14:09:44.395Z,31.14
2022-08-28T14:12:17.334Z,31.11
2022-08-28T14:14:53.176Z,31.14
2022-08-28T14:17:26.046Z,31.17
2022-08-28T14:20:00.863Z,31.16
2022-08-28T14:22:36.043Z,31.09
2022-08-28T14:25:10.779Z,31.08
2022-08-28T14:27:43.716Z,31.06
2022-08-28T14:30:16.559Z,31.05
2022-08-28T14:32:49.464Z,31.05
2022-08-28T14:35:23.185Z,31.06
2022-08-28T14:37:56.171Z,30.99
2022-08-28T14:40:29.328Z,30.95
2022-08-28T14:43:02.465Z,30.90
2022-08-28T14:45:35.270Z,30.93
2022-08-28T14:48:08.135Z,30.92
2022-08-28T14:50:45.546Z,30.90
2022-08-28T14:53:19.079Z,30.89
2022-08-28T14:55:53.029Z,30.87
2022-08-28T14:58:25.959Z,30.84
2022-08-28T15:00:59.267Z,30.81
2022-08-28T15:03:32.712Z,30.76
2022-08-28T15:06:07.752Z,30.72
2022-08-28T15:08:42.101Z,30.64
2022-08-28T15:11:18.709Z,30.64
2022-08-28T15:13:52.990Z,30.63
2022-08-28T15:16:30.409Z,30.57
2022-08-28T15:19:04.887Z,30.55
2022-08-28T15:21:40.094Z,30.51
2022-08-28T15:24:13.035Z,30.45
2022-08-28T15:26:46.349Z,30.40
2022-08-28T15:29:19.697Z,30.27
2022-08-28T15:31:53.464Z,30.24
2022-08-28T15:34:29.162Z,30.21
2022-08-28T15:37:02.837Z,30.14
2022-08-28T15:39:59.010Z,30.06
2022-08-28T15:42:32.347Z,30.01
2022-08-28T15:45:05.493Z,29.90
2022-08-28T15:47:39.262Z,29.88
2022-08-28T15:50:12.827Z,29.81
2022-08-28T15:52:45.907Z,29.70
2022-08-28T15:55:18.927Z,29.67
2022-08-28T15:57:52.303Z,29.59
2022-08-28T16:00:26.243Z,29.52
2022-08-28T16:03:01.595Z,29.44
2022-08-28T16:05:39.729Z,29.32
2022-08-28T16:08:15.147Z,29.22
2022-08-28T16:10:57.340Z,29.17
2022-08-28T16:13:30.202Z,29.06
2022-08-28T16:16:04.175Z,28.97
2022-08-28T16:18:37.747Z,28.87
2022-08-28T16:21:11.689Z,28.73
2022-08-28T16:23:45.101Z,28.66
2022-08-28T16:26:19.207Z,28.54
2022-08-28T16:28:53.457Z,28.44
2022-08-28T16:31:27.190Z,28.32
2022-08-28T16:34:01.422Z,28.17
2022-08-28T16:36:34.764Z,28.04
2022-08-28T16:39:12.525Z,27.98
2022-08-28T16:41:50.772Z,27.83
2022-08-28T16:44:26.916Z,27.66
2022-08-28T16:47:01.261Z,27.58
2022-08-28T16:49:35.166Z,27.51
2022-08-28T16:52:08.320Z,27.40
2022-08-28T16:54:48.628Z,27.28
2022-08-28T16:57:24.835Z,27.14
2022-08-28T16:59:58.106Z,27.05
2022-08-28T17:02:33.930Z,26.95
2022-08-28T17:05:08.364Z,26.86
2022-08-28T17:07:41.739Z,26.75
2022-08-28T17:10:16.672Z,26.65
2022-08-28T17:12:49.931Z,26.56
2022-08-28T17:15:23.529Z,26.47
2022-08-28T17:17:57.706Z,26.39
2022-08-28T17:20:50.153Z,26.30
2022-08-28T17:23:24.306Z,26.20
2022-08-28T17:25:58.849Z,26.10
2022-08-28T17:28:33.138Z,25.96
2022-08-28T17:31:08.173Z,25.93
2022-08-28T17:33:43.000Z,25.85
2022-08-28T17:36:32.639Z,25.76
2022-08-28T17:39:13.112Z,25.66
2022-08-28T17:41:47.745Z,25.59
2022-08-28T17:44:21.926Z,25.48
2022-08-28T17:46:55.453Z,25.40
2022-08-28T17:49:29.855Z,25.33
2022-08-28T17:52:04.032Z,25.24
2022-08-28T17:54:37.281Z,25.19
2022-08-28T17:57:10.648Z,25.12
2022-08-28T17:59:44.530Z,25.05
2022-08-28T18:02:18.359Z,24.96
2022-08-28T18:04:51.680Z,24.84
2022-08-28T18:07:24.910Z,24.78
2022-08-28T18:09:58.030Z,24.76
2022-08-28T18:12:32.557Z,24.64
2022-08-28T18:15:06.389Z,24.62
2022-08-28T18:17:42.878Z,24.56
2022-08-28T18:20:16.008Z,24.48
2022-08-28T18:22:50.345Z,24.35
2022-08-28T18:25:43.419Z,24.31
2022-08-28T18:28:27.794Z,24.20
2022-08-28T18:31:03.258Z,24.07
2022-08-28T18:33:41.897Z,24.02
2022-08-28T18:36:16.908Z,23.99
2022-08-28T18:38:50.543Z,23.94
2022-08-28T18:41:43.234Z,23.82
2022-08-28T18:44:24.072Z,23.75
2022-08-28T18:46:59.300Z,23.69
2022-08-28T18:49:33.149Z,23.61
2022-08-28T18:52:06.443Z,23.63
2022-08-28T18:54:40.123Z,23.55
2022-08-28T18:57:15.957Z,23.41
2022-08-28T18:59:52.604Z,23.41
2022-08-28T19:02:25.984Z,23.36
2022-08-28T19:04:59.576Z,23.22
2022-08-28T19:07:32.730Z,23.26
2022-08-28T19:10:22.741Z,23.24
2022-08-28T19:13:04.776Z,23.19
2022-08-28T19:15:39.260Z,23.14
2022-08-28T19:18:13.347Z,23.01
2022-08-28T19:20:48.000Z,23.00
2022-08-28T19:23:22.115Z,22.98
2022-08-28T19:25:55.755Z,22.89
2022-08-28T19:28:28.783Z,22.86
2022-08-28T19:31:02.422Z,22.77
2022-08-28T19:33:36.062Z,22.79
2022-08-28T19:36:09.286Z,22.74
2022-08-28T19:38:42.212Z,22.69
2022-08-28T19:41:16.043Z,22.61
2022-08-28T19:43:49.817Z,22.63
2022-08-28T19:46:23.407Z,22.60
2022-08-28T19:48:57.275Z,22.50
2022-08-28T19:51:30.826Z,22.41
2022-08-28T19:54:06.179Z,22.42
2022-08-28T19:56:40.577Z,22.43
2022-08-28T19:59:13.265Z,22.39
2022-08-28T20:01:47.016Z,22.35
2022-08-28T20:04:20.284Z,22.32
2022-08-28T20:06:54.268Z,22.28
2022-08-28T20:09:27.677Z,22.21
2022-08-28T20:12:01.556Z,22.24
2022-08-28T20:14:35.307Z,22.22
2022-08-28T20:17:08.381Z,22.17
2022-08-28T20:19:41.684Z,22.15
2022-08-28T20:22:14.491Z,22.15
2022-08-28T20:24:48.062Z,22.11
2022-08-28T20:27:21.961Z,22.07
2022-08-28T20:29:55.224Z,22.04
2022-08-28T20:32:28.559Z,21.95
2022-08-28T20:35:02.262Z,21.85
2022-08-28T20:37:45.018Z,21.87
2022-08-28T20:40:22.533Z,21.82
2022-08-28T20:42:55.543Z,21.84
2022-08-28T20:45:29.256Z,21.77
2022-08-28T20:48:03.149Z,21.64
2022-08-28T20:50:35.965Z,21.67
2022-08-28T20:53:09.106Z,21.64
2022-08-28T20:55:41.913Z,21.67
2022-08-28T20:58:15.795Z,21.64
2022-08-28T21:00:53.485Z,21.50
2022-08-28T21:03:34.235Z,21.42
2022-08-28T21:06:07.592Z,21.36
2022-08-28T21:08:41.367Z,21.39
2022-08-28T21:11:14.784Z,21.34
2022-08-28T21:13:48.922Z,21.32
2022-08-28T21:16:22.341Z,21.31
2022-08-28T21:19:14.787Z,21.24
2022-08-28T21:21:50.443Z,21.23
2022-08-28T21:24:28.217Z,21.29
2022-08-28T21:27:01.656Z,21.21
2022-08-28T21:29:35.031Z,21.26
2022-08-28T21:32:08.510Z,21.25
2022-08-28T21:34:41.720Z,21.23
2022-08-28T21:37:15.749Z,21.21
2022-08-28T21:39:49.155Z,21.19
2022-08-28T21:42:22.360Z,21.16
2022-08-28T21:44:55.950Z,21.15
2022-08-28T21:47:29.878Z,21.04
2022-08-28T21:50:03.674Z,21.02
2022-08-28T21:52:37.471Z,21.02
2022-08-28T21:55:14.361Z,20.98
2022-08-28T21:57:47.602Z,20.97
2022-08-28T22:00:27.182Z,20.95
2022-08-28T22:03:00.992Z,20.93
2022-08-28T22:05:34.711Z,20.88
2022-08-28T22:08:08.547Z,20.84
2022-08-28T22:10:44.240Z,20.81
2022-08-28T22:13:18.704Z,20.78
2022-08-28T22:15:52.469Z,20.72
2022-08-28T22:18:28.078Z,20.77
2022-08-28T22:21:31.734Z,20.77
2022-08-28T22:24:05.745Z,20.73
2022-08-28T22:26:39.565Z,20.71
2022-08-28T22:29:14.276Z,20.73
2022-08-28T22:31:48.154Z,20.71
2022-08-28T22:34:22.404Z,20.75
2022-08-28T22:36:55.900Z,20.74
2022-08-28T22:39:29.803Z,20.71
2022-08-28T22:42:04.024Z,20.68
2022-08-28T22:44:38.630Z,20.66
2022-08-28T22:47:13.156Z,20.62
2022-08-28T22:49:47.883Z,20.54
2022-08-28T22:52:21.316Z,20.54
2022-08-28T22:54:55.800Z,20.50
2022-08-28T22:57:30.427Z,20.48
2022-08-28T23:00:08.341Z,20.47
2022-08-28T23:02:43.422Z,20.37
2022-08-28T23:05:18.386Z,20.41
2022-08-28T23:07:51.909Z,20.36
2022-08-28T23:10:48.158Z,20.30
2022-08-28T23:13:22.505Z,20.25
2022-08-28T23:15:56.506Z,20.22
2022-08-28T23:18:46.250Z,20.20
2022-08-28T23:21:29.266Z,20.16
2022-08-28T23:24:03.074Z,20.13
2022-08-28T23:26:37.625Z,20.10
2022-08-28T23:29:12.433Z,20.08
2022-08-28T23:31:46.469Z,20.06
2022-08-28T23:34:22.103Z,19.99
2022-08-28T23:36:55.923Z,20.01
2022-08-28T23:39:32.743Z,19.94
2022-08-28T23:42:07.633Z,19.97
2022-08-28T23:44:41.443Z,19.94
2022-08-28T23:47:15.362Z,19.91
2022-08-28T23:49:49.397Z,19.83
2022-08-28T23:52:23.863Z,19.77
2022-08-28T23:54:58.446Z,19.73
2022-08-28T23:57:32.463Z,19.69
